GEC856 FIMP-FMCZ
Flight info
| Callsign | GEC856 |
|---|---|
| Flight time | 2h 5m |
| Altitude | 38000 |
| Route | NIBIS1 NIBIS DCT APLEM UG661 ANDIL DCT SOAVI SOAVI1D |
| Aircraft | B77L/H-SDE1E2E3FGHIJ2J3J4J5M1RWXY/LB1D1 |
Departure
| Time | 2026-04-14 08:00 |
|---|---|
| Airport | Sir Seewoosagur Ramgoolam International Airport (FIMP) |
Arrival
| Time | 2026-04-14 10:05 |
|---|---|
| Airport | Dzaoudzi Pamandzi International Airport (FMCZ) |
| Time | Latitude | Longitude | Altitude | Speed | Heading |
|---|---|---|---|---|---|
| 2026-04-14 07:39 | -20.43098 | 57.67773 | 196 ft | 0 kts | 206° |
| 2026-04-14 07:50 | -20.43093 | 57.67776 | 196 ft | 2 kts | 209° |
| 2026-04-14 07:50 | -20.43081 | 57.67784 | 196 ft | 2 kts | 221° |
| 2026-04-14 07:50 | -20.43070 | 57.67796 | 196 ft | 2 kts | 230° |
| 2026-04-14 07:51 | -20.43062 | 57.67809 | 196 ft | 2 kts | 240° |
| 2026-04-14 07:51 | -20.43055 | 57.67823 | 197 ft | 2 kts | 250° |
| 2026-04-14 07:51 | -20.43051 | 57.67838 | 196 ft | 2 kts | 259° |
| 2026-04-14 07:51 | -20.43049 | 57.67853 | 196 ft | 2 kts | 268° |
| 2026-04-14 07:52 | -20.43049 | 57.67869 | 196 ft | 2 kts | 278° |
| 2026-04-14 07:52 | -20.43052 | 57.67884 | 196 ft | 2 kts | 287° |
| 2026-04-14 07:52 | -20.43058 | 57.67899 | 196 ft | 2 kts | 297° |
| 2026-04-14 07:52 | -20.43065 | 57.67913 | 196 ft | 2 kts | 297° |
| 2026-04-14 07:53 | -20.43072 | 57.67928 | 196 ft | 2 kts | 296° |
| 2026-04-14 07:53 | -20.43078 | 57.67940 | 196 ft | 0 kts | 296° |
| 2026-04-14 07:54 | -20.43077 | 57.67938 | 196 ft | 1 kts | 296° |
| 2026-04-14 07:55 | -20.43061 | 57.67904 | 196 ft | 6 kts | 297° |
| 2026-04-14 07:55 | -20.43036 | 57.67853 | 196 ft | 8 kts | 297° |
| 2026-04-14 07:55 | -20.43006 | 57.67789 | 197 ft | 10 kts | 297° |
| 2026-04-14 07:55 | -20.42969 | 57.67714 | 197 ft | 12 kts | 297° |
| 2026-04-14 07:56 | -20.42915 | 57.67643 | 197 ft | 13 kts | 331° |
| 2026-04-14 07:56 | -20.42830 | 57.67594 | 197 ft | 14 kts | 325° |
| 2026-04-14 07:56 | -20.42751 | 57.67530 | 197 ft | 10 kts | 321° |
| 2026-04-14 07:56 | -20.42688 | 57.67486 | 197 ft | 11 kts | 340° |
| 2026-04-14 07:57 | -20.42608 | 57.67459 | 197 ft | 12 kts | 342° |
| 2026-04-14 07:57 | -20.42539 | 57.67403 | 197 ft | 13 kts | 297° |
| 2026-04-14 07:57 | -20.42494 | 57.67310 | 197 ft | 14 kts | 297° |
| 2026-04-14 07:57 | -20.42444 | 57.67209 | 197 ft | 15 kts | 297° |
| 2026-04-14 07:58 | -20.42393 | 57.67101 | 198 ft | 17 kts | 297° |
| 2026-04-14 07:58 | -20.42356 | 57.67029 | 198 ft | 8 kts | 302° |
| 2026-04-14 07:58 | -20.42316 | 57.66979 | 198 ft | 9 kts | 303° |
| 2026-04-14 07:58 | -20.42331 | 57.66958 | 198 ft | 6 kts | 122° |
| 2026-04-14 07:59 | -20.42351 | 57.67011 | 198 ft | 11 kts | 115° |
| 2026-04-14 07:59 | -20.42460 | 57.67240 | 197 ft | 68 kts | 117° |
| 2026-04-14 07:59 | -20.42779 | 57.67905 | 197 ft | 131 kts | 117° |
| 2026-04-14 07:59 | -20.43268 | 57.68939 | 353 ft | 166 kts | 114° |
| 2026-04-14 08:00 | -20.43798 | 57.70003 | 1006 ft | 168 kts | 116° |
| 2026-04-14 08:00 | -20.44340 | 57.71078 | 1759 ft | 164 kts | 115° |
| 2026-04-14 08:00 | -20.44881 | 57.72200 | 2095 ft | 178 kts | 115° |
| 2026-04-14 08:00 | -20.45467 | 57.73413 | 2421 ft | 193 kts | 115° |
| 2026-04-14 08:01 | -20.46098 | 57.74748 | 2764 ft | 208 kts | 110° |
| 2026-04-14 08:01 | -20.46328 | 57.76303 | 3108 ft | 223 kts | 85° |
| 2026-04-14 08:01 | -20.45900 | 57.77956 | 3498 ft | 240 kts | 61° |
| 2026-04-14 08:01 | -20.44770 | 57.79336 | 3878 ft | 258 kts | 35° |
| 2026-04-14 08:02 | -20.43187 | 57.80265 | 4505 ft | 265 kts | 27° |
| 2026-04-14 08:02 | -20.41515 | 57.81132 | 5225 ft | 268 kts | 27° |
| 2026-04-14 08:02 | -20.39715 | 57.81720 | 5874 ft | 275 kts | 5° |
| 2026-04-14 08:02 | -20.37834 | 57.81396 | 6451 ft | 282 kts | 340° |
| 2026-04-14 08:03 | -20.36051 | 57.80484 | 7077 ft | 285 kts | 333° |
| 2026-04-14 08:03 | -20.34318 | 57.79470 | 7674 ft | 288 kts | 332° |
| 2026-04-14 08:03 | -20.32548 | 57.78428 | 8307 ft | 291 kts | 332° |
| 2026-04-14 08:03 | -20.30796 | 57.77404 | 9071 ft | 292 kts | 332° |
| 2026-04-14 08:04 | -20.29002 | 57.76359 | 9865 ft | 294 kts | 332° |
| 2026-04-14 08:04 | -20.27206 | 57.75315 | 10552 ft | 301 kts | 331° |
| 2026-04-14 08:04 | -20.25296 | 57.74205 | 10966 ft | 316 kts | 331° |
| 2026-04-14 08:04 | -20.23336 | 57.73066 | 11135 ft | 331 kts | 331° |
| 2026-04-14 08:05 | -20.21245 | 57.71851 | 11333 ft | 347 kts | 331° |
| 2026-04-14 08:05 | -20.19078 | 57.70593 | 11510 ft | 363 kts | 331° |
| 2026-04-14 08:05 | -20.16829 | 57.69288 | 11752 ft | 377 kts | 331° |
| 2026-04-14 08:05 | -20.14495 | 57.67933 | 12163 ft | 386 kts | 330° |
| 2026-04-14 08:06 | -20.12122 | 57.66557 | 12748 ft | 389 kts | 330° |
| 2026-04-14 08:06 | -20.09720 | 57.65164 | 13444 ft | 392 kts | 330° |
| 2026-04-14 08:06 | -20.07311 | 57.63767 | 14038 ft | 397 kts | 330° |
| 2026-04-14 08:06 | -20.04891 | 57.62365 | 14651 ft | 401 kts | 330° |
| 2026-04-14 08:07 | -20.02442 | 57.60946 | 15292 ft | 404 kts | 330° |
| 2026-04-14 08:07 | -19.99959 | 57.59493 | 15926 ft | 407 kts | 328° |
| 2026-04-14 08:07 | -19.97673 | 57.57732 | 16565 ft | 409 kts | 317° |
| 2026-04-14 08:07 | -19.95698 | 57.55519 | 17218 ft | 411 kts | 307° |
| 2026-04-14 08:08 | -19.94166 | 57.53011 | 17825 ft | 413 kts | 297° |
| 2026-04-14 08:08 | -19.93066 | 57.50192 | 18403 ft | 417 kts | 286° |
| 2026-04-14 08:08 | -19.92421 | 57.47165 | 19017 ft | 419 kts | 281° |
| 2026-04-14 08:08 | -19.91750 | 57.44138 | 19616 ft | 423 kts | 284° |
| 2026-04-14 08:09 | -19.90892 | 57.41156 | 20182 ft | 428 kts | 287° |
| 2026-04-14 08:09 | -19.89889 | 57.38163 | 20796 ft | 431 kts | 289° |
| 2026-04-14 08:09 | -19.88775 | 57.35207 | 21369 ft | 435 kts | 291° |
| 2026-04-14 08:09 | -19.87575 | 57.32275 | 21927 ft | 438 kts | 293° |
| 2026-04-14 08:10 | -19.86319 | 57.29345 | 22490 ft | 442 kts | 293° |
| 2026-04-14 08:10 | -19.85003 | 57.26358 | 23044 ft | 446 kts | 294° |
| 2026-04-14 08:10 | -19.83664 | 57.23377 | 23573 ft | 450 kts | 294° |
| 2026-04-14 08:10 | -19.82313 | 57.20412 | 24142 ft | 453 kts | 295° |
| 2026-04-14 08:11 | -19.80927 | 57.17398 | 24703 ft | 455 kts | 295° |
| 2026-04-14 08:11 | -19.79524 | 57.14369 | 25203 ft | 459 kts | 295° |
| 2026-04-14 08:11 | -19.78114 | 57.11338 | 25702 ft | 463 kts | 295° |
| 2026-04-14 08:11 | -19.76678 | 57.08263 | 26228 ft | 465 kts | 295° |
| 2026-04-14 08:12 | -19.75226 | 57.05163 | 26702 ft | 469 kts | 295° |
| 2026-04-14 08:12 | -19.73771 | 57.02065 | 27185 ft | 472 kts | 295° |
| 2026-04-14 08:12 | -19.72309 | 56.98954 | 27633 ft | 476 kts | 295° |
| 2026-04-14 08:12 | -19.70831 | 56.95815 | 28061 ft | 479 kts | 295° |
| 2026-04-14 08:13 | -19.69331 | 56.92633 | 28496 ft | 482 kts | 295° |
| 2026-04-14 08:13 | -19.67838 | 56.89467 | 28923 ft | 485 kts | 295° |
| 2026-04-14 08:13 | -19.66314 | 56.86240 | 29307 ft | 489 kts | 295° |
| 2026-04-14 08:13 | -19.64802 | 56.83040 | 29779 ft | 490 kts | 295° |
| 2026-04-14 08:14 | -19.63273 | 56.79808 | 30413 ft | 488 kts | 295° |
| 2026-04-14 08:14 | -19.61773 | 56.76638 | 31069 ft | 485 kts | 295° |
| 2026-04-14 08:14 | -19.60253 | 56.73426 | 31677 ft | 482 kts | 295° |
| 2026-04-14 08:14 | -19.58757 | 56.70269 | 32198 ft | 481 kts | 295° |
| 2026-04-14 08:15 | -19.57260 | 56.67111 | 32679 ft | 481 kts | 295° |
| 2026-04-14 08:15 | -19.55760 | 56.63948 | 33175 ft | 480 kts | 295° |
| 2026-04-14 08:15 | -19.54261 | 56.60788 | 33776 ft | 479 kts | 295° |
| 2026-04-14 08:15 | -19.52772 | 56.57652 | 34422 ft | 475 kts | 295° |
| 2026-04-14 08:16 | -19.51307 | 56.54569 | 35103 ft | 472 kts | 295° |
| 2026-04-14 08:16 | -19.49840 | 56.51484 | 35758 ft | 468 kts | 295° |
| 2026-04-14 08:16 | -19.48382 | 56.48418 | 36309 ft | 465 kts | 295° |
| 2026-04-14 08:16 | -19.46941 | 56.45390 | 36688 ft | 465 kts | 295° |
| 2026-04-14 08:17 | -19.45479 | 56.42319 | 37011 ft | 465 kts | 295° |
| 2026-04-14 08:17 | -19.44037 | 56.39292 | 37359 ft | 465 kts | 295° |
| 2026-04-14 08:17 | -19.42582 | 56.36238 | 37736 ft | 463 kts | 295° |
| 2026-04-14 08:17 | -19.41127 | 56.33188 | 38037 ft | 463 kts | 295° |
| 2026-04-14 08:18 | -19.39663 | 56.30117 | 38036 ft | 464 kts | 295° |
| 2026-04-14 08:18 | -19.36759 | 56.24036 | 38035 ft | 461 kts | 295° |
| 2026-04-14 08:19 | -19.33857 | 56.17965 | 38033 ft | 463 kts | 295° |
| 2026-04-14 08:19 | -19.30953 | 56.11897 | 38034 ft | 463 kts | 295° |
| 2026-04-14 08:20 | -19.28049 | 56.05834 | 38032 ft | 463 kts | 295° |
| 2026-04-14 08:20 | -19.25152 | 55.99793 | 38034 ft | 462 kts | 295° |
| 2026-04-14 08:21 | -19.22229 | 55.93702 | 38024 ft | 463 kts | 295° |
| 2026-04-14 08:21 | -19.19319 | 55.87647 | 38036 ft | 462 kts | 295° |
| 2026-04-14 08:22 | -19.16409 | 55.81596 | 38033 ft | 463 kts | 295° |
| 2026-04-14 08:22 | -19.13511 | 55.75579 | 38031 ft | 462 kts | 295° |
| 2026-04-14 08:23 | -19.10597 | 55.69533 | 38020 ft | 462 kts | 295° |
| 2026-04-14 08:23 | -19.07689 | 55.63504 | 38029 ft | 463 kts | 295° |
| 2026-04-14 08:24 | -19.04739 | 55.57397 | 38015 ft | 462 kts | 295° |
| 2026-04-14 08:24 | -19.01620 | 55.51465 | 38027 ft | 464 kts | 303° |
| 2026-04-14 08:25 | -18.97804 | 55.45977 | 38018 ft | 465 kts | 304° |
| 2026-04-14 08:25 | -18.93986 | 55.40425 | 38011 ft | 465 kts | 303° |
| 2026-04-14 08:26 | -18.90216 | 55.34874 | 38029 ft | 463 kts | 303° |
| 2026-04-14 08:26 | -18.86498 | 55.29364 | 38028 ft | 463 kts | 303° |
| 2026-04-14 08:27 | -18.82764 | 55.23815 | 38013 ft | 463 kts | 303° |
| 2026-04-14 08:27 | -18.79035 | 55.18270 | 38035 ft | 461 kts | 303° |
| 2026-04-14 08:28 | -18.75290 | 55.12699 | 38010 ft | 465 kts | 303° |
| 2026-04-14 08:28 | -18.71575 | 55.07175 | 38034 ft | 460 kts | 303° |
| 2026-04-14 08:29 | -18.67878 | 55.01681 | 38021 ft | 461 kts | 303° |
| 2026-04-14 08:29 | -18.64160 | 54.96161 | 38024 ft | 464 kts | 303° |
| 2026-04-14 08:30 | -18.60439 | 54.90640 | 38030 ft | 461 kts | 303° |
| 2026-04-14 08:30 | -18.56736 | 54.85150 | 38028 ft | 461 kts | 303° |
| 2026-04-14 08:31 | -18.53014 | 54.79636 | 38024 ft | 460 kts | 303° |
| 2026-04-14 08:31 | -18.47457 | 54.71415 | 38021 ft | 459 kts | 303° |
| 2026-04-14 08:32 | -18.43742 | 54.65929 | 38021 ft | 458 kts | 303° |
| 2026-04-14 08:32 | -18.40045 | 54.60473 | 38028 ft | 461 kts | 303° |
| 2026-04-14 08:33 | -18.36320 | 54.54981 | 38008 ft | 461 kts | 303° |
| 2026-04-14 08:33 | -18.32602 | 54.49505 | 38022 ft | 459 kts | 303° |
| 2026-04-14 08:34 | -18.28862 | 54.44001 | 38021 ft | 459 kts | 303° |
| 2026-04-14 08:34 | -18.25161 | 54.38557 | 38010 ft | 460 kts | 303° |
| 2026-04-14 08:35 | -18.21436 | 54.33086 | 38027 ft | 458 kts | 303° |
| 2026-04-14 08:35 | -18.17713 | 54.27620 | 38020 ft | 460 kts | 303° |
| 2026-04-14 08:36 | -18.13980 | 54.22145 | 38018 ft | 459 kts | 304° |
| 2026-04-14 08:36 | -18.10246 | 54.16672 | 38013 ft | 459 kts | 304° |
| 2026-04-14 08:37 | -18.06556 | 54.11263 | 38015 ft | 457 kts | 304° |
| 2026-04-14 08:37 | -18.02824 | 54.05794 | 38011 ft | 460 kts | 304° |
| 2026-04-14 08:38 | -17.99078 | 54.00310 | 38005 ft | 458 kts | 304° |
| 2026-04-14 08:38 | -17.95340 | 53.94843 | 38015 ft | 456 kts | 304° |
| 2026-04-14 08:39 | -17.91643 | 53.89439 | 38010 ft | 457 kts | 304° |
| 2026-04-14 08:39 | -17.87905 | 53.83982 | 38009 ft | 458 kts | 304° |
| 2026-04-14 08:40 | -17.84197 | 53.78572 | 38010 ft | 457 kts | 304° |
| 2026-04-14 08:40 | -17.80505 | 53.73190 | 38001 ft | 456 kts | 304° |
| 2026-04-14 08:41 | -17.76785 | 53.67770 | 38016 ft | 455 kts | 304° |
| 2026-04-14 08:41 | -17.73093 | 53.62397 | 38006 ft | 456 kts | 304° |
| 2026-04-14 08:42 | -17.69383 | 53.57001 | 38004 ft | 456 kts | 304° |
| 2026-04-14 08:42 | -17.65638 | 53.51559 | 37994 ft | 458 kts | 303° |
| 2026-04-14 08:43 | -17.61913 | 53.46151 | 38009 ft | 455 kts | 304° |
| 2026-04-14 08:43 | -17.58207 | 53.40774 | 38015 ft | 456 kts | 304° |
| 2026-04-14 08:44 | -17.54462 | 53.35346 | 38008 ft | 456 kts | 304° |
| 2026-04-14 08:44 | -17.50733 | 53.29944 | 38010 ft | 456 kts | 304° |
| 2026-04-14 08:45 | -17.47002 | 53.24545 | 38012 ft | 455 kts | 304° |
| 2026-04-14 08:45 | -17.43293 | 53.19182 | 38003 ft | 454 kts | 304° |
| 2026-04-14 08:46 | -17.39592 | 53.13833 | 38003 ft | 455 kts | 304° |
| 2026-04-14 08:46 | -17.35897 | 53.08499 | 38012 ft | 454 kts | 304° |
| 2026-04-14 08:47 | -17.32169 | 53.03120 | 38017 ft | 456 kts | 304° |
| 2026-04-14 08:47 | -17.28441 | 52.97747 | 38024 ft | 454 kts | 304° |
| 2026-04-14 08:48 | -17.24740 | 52.92415 | 37999 ft | 456 kts | 304° |
| 2026-04-14 08:48 | -17.21028 | 52.87073 | 38004 ft | 453 kts | 304° |
| 2026-04-14 08:49 | -17.17319 | 52.81739 | 38004 ft | 455 kts | 304° |
| 2026-04-14 08:49 | -17.13592 | 52.76382 | 38009 ft | 455 kts | 304° |
| 2026-04-14 08:50 | -17.09870 | 52.71039 | 38008 ft | 455 kts | 304° |
| 2026-04-14 08:50 | -17.06148 | 52.65698 | 38001 ft | 457 kts | 304° |
| 2026-04-14 08:51 | -17.02399 | 52.60324 | 38001 ft | 453 kts | 304° |
| 2026-04-14 08:51 | -16.98690 | 52.55009 | 38013 ft | 456 kts | 304° |
| 2026-04-14 08:52 | -16.94962 | 52.49672 | 38006 ft | 455 kts | 304° |
| 2026-04-14 08:52 | -16.91222 | 52.44324 | 38009 ft | 455 kts | 304° |
| 2026-04-14 08:53 | -16.87526 | 52.39041 | 38002 ft | 454 kts | 304° |
| 2026-04-14 08:53 | -16.83789 | 52.33704 | 37994 ft | 455 kts | 304° |
| 2026-04-14 08:54 | -16.80062 | 52.28386 | 38007 ft | 456 kts | 304° |
| 2026-04-14 08:54 | -16.76303 | 52.23029 | 37995 ft | 452 kts | 304° |
| 2026-04-14 08:55 | -16.72584 | 52.17731 | 38012 ft | 456 kts | 304° |
| 2026-04-14 08:55 | -16.68839 | 52.12400 | 38008 ft | 453 kts | 304° |
| 2026-04-14 08:56 | -16.65142 | 52.07144 | 37995 ft | 450 kts | 304° |
| 2026-04-14 08:56 | -16.61420 | 52.01853 | 38000 ft | 454 kts | 304° |
| 2026-04-14 08:57 | -16.57710 | 51.96584 | 38005 ft | 450 kts | 304° |
| 2026-04-14 08:57 | -16.54018 | 51.91346 | 38009 ft | 452 kts | 304° |
| 2026-04-14 08:58 | -16.50265 | 51.86023 | 38001 ft | 455 kts | 304° |
| 2026-04-14 08:58 | -16.46529 | 51.80729 | 38012 ft | 452 kts | 304° |
| 2026-04-14 08:59 | -16.42820 | 51.75478 | 38001 ft | 453 kts | 304° |
| 2026-04-14 08:59 | -16.39077 | 51.70182 | 38007 ft | 455 kts | 304° |
| 2026-04-14 09:00 | -16.35345 | 51.64906 | 38000 ft | 449 kts | 304° |
| 2026-04-14 09:00 | -16.31610 | 51.59630 | 38008 ft | 452 kts | 304° |
| 2026-04-14 09:01 | -16.27902 | 51.54395 | 37995 ft | 449 kts | 304° |
| 2026-04-14 09:01 | -16.24180 | 51.49144 | 37993 ft | 450 kts | 304° |
| 2026-04-14 09:02 | -16.20450 | 51.43885 | 38003 ft | 453 kts | 304° |
| 2026-04-14 09:02 | -16.16744 | 51.38665 | 37999 ft | 448 kts | 304° |
| 2026-04-14 09:03 | -16.13021 | 51.33423 | 38014 ft | 452 kts | 305° |
| 2026-04-14 09:03 | -16.09294 | 51.28182 | 38021 ft | 451 kts | 305° |
| 2026-04-14 09:04 | -16.05573 | 51.22950 | 38017 ft | 452 kts | 305° |
| 2026-04-14 09:04 | -16.01847 | 51.17717 | 38007 ft | 448 kts | 305° |
| 2026-04-14 09:05 | -15.98123 | 51.12489 | 38006 ft | 452 kts | 305° |
| 2026-04-14 09:05 | -15.94385 | 51.07247 | 38002 ft | 448 kts | 305° |
| 2026-04-14 09:06 | -15.90684 | 51.02059 | 38015 ft | 451 kts | 305° |
| 2026-04-14 09:06 | -15.86931 | 50.96802 | 38009 ft | 450 kts | 305° |
| 2026-04-14 09:07 | -15.83211 | 50.91595 | 38003 ft | 451 kts | 304° |
| 2026-04-14 09:07 | -15.79491 | 50.86393 | 38011 ft | 451 kts | 305° |
| 2026-04-14 09:08 | -15.75760 | 50.81178 | 38006 ft | 450 kts | 304° |
| 2026-04-14 09:08 | -15.72028 | 50.75964 | 38015 ft | 450 kts | 305° |
| 2026-04-14 09:09 | -15.68288 | 50.70745 | 38009 ft | 449 kts | 305° |
| 2026-04-14 09:09 | -15.64570 | 50.65559 | 37996 ft | 450 kts | 304° |
| 2026-04-14 09:10 | -15.60828 | 50.60344 | 37997 ft | 450 kts | 305° |
| 2026-04-14 09:10 | -15.57078 | 50.55119 | 38008 ft | 452 kts | 305° |
| 2026-04-14 09:11 | -15.53345 | 50.49924 | 38009 ft | 452 kts | 304° |
| 2026-04-14 09:11 | -15.49577 | 50.44683 | 38009 ft | 450 kts | 304° |
| 2026-04-14 09:12 | -15.45838 | 50.39485 | 38018 ft | 452 kts | 304° |
| 2026-04-14 09:12 | -15.42072 | 50.34256 | 38031 ft | 452 kts | 305° |
| 2026-04-14 09:13 | -15.38320 | 50.29046 | 38056 ft | 452 kts | 305° |
| 2026-04-14 09:13 | -15.34584 | 50.23865 | 38062 ft | 451 kts | 305° |
| 2026-04-14 09:14 | -15.30834 | 50.18666 | 38070 ft | 451 kts | 304° |
| 2026-04-14 09:14 | -15.27076 | 50.13462 | 38077 ft | 450 kts | 305° |
| 2026-04-14 09:15 | -15.23327 | 50.08271 | 38095 ft | 452 kts | 305° |
| 2026-04-14 09:15 | -15.19569 | 50.03073 | 38090 ft | 452 kts | 305° |
| 2026-04-14 09:16 | -15.15799 | 49.97860 | 38098 ft | 452 kts | 305° |
| 2026-04-14 09:16 | -15.12020 | 49.92639 | 38082 ft | 453 kts | 305° |
| 2026-04-14 09:17 | -15.08251 | 49.87436 | 38070 ft | 451 kts | 305° |
| 2026-04-14 09:17 | -15.04474 | 49.82226 | 38064 ft | 452 kts | 305° |
| 2026-04-14 09:18 | -15.00705 | 49.77030 | 38074 ft | 451 kts | 305° |
| 2026-04-14 09:18 | -14.96984 | 49.71902 | 38081 ft | 450 kts | 305° |
| 2026-04-14 09:19 | -14.93187 | 49.66673 | 38097 ft | 453 kts | 304° |
| 2026-04-14 09:19 | -14.89411 | 49.61477 | 38113 ft | 451 kts | 305° |
| 2026-04-14 09:20 | -14.85664 | 49.56324 | 38132 ft | 451 kts | 304° |
| 2026-04-14 09:20 | -14.81876 | 49.51117 | 38148 ft | 452 kts | 305° |
| 2026-04-14 09:21 | -14.78112 | 49.45948 | 38145 ft | 452 kts | 305° |
| 2026-04-14 09:21 | -14.74339 | 49.40768 | 38156 ft | 452 kts | 304° |
| 2026-04-14 09:22 | -14.70579 | 49.35611 | 38152 ft | 451 kts | 304° |
| 2026-04-14 09:22 | -14.66809 | 49.30444 | 38195 ft | 452 kts | 305° |
| 2026-04-14 09:23 | -14.63029 | 49.25266 | 38224 ft | 450 kts | 305° |
| 2026-04-14 09:23 | -14.59252 | 49.20094 | 38222 ft | 451 kts | 305° |
| 2026-04-14 09:24 | -14.55479 | 49.14933 | 38239 ft | 450 kts | 305° |
| 2026-04-14 09:24 | -14.51730 | 49.09807 | 38221 ft | 450 kts | 305° |
| 2026-04-14 09:25 | -14.47945 | 49.04635 | 38214 ft | 451 kts | 305° |
| 2026-04-14 09:25 | -14.44166 | 48.99475 | 38209 ft | 451 kts | 305° |
| 2026-04-14 09:26 | -14.40400 | 48.94335 | 38248 ft | 449 kts | 305° |
| 2026-04-14 09:26 | -14.36641 | 48.89209 | 38239 ft | 450 kts | 305° |
| 2026-04-14 09:27 | -14.32856 | 48.84050 | 38243 ft | 452 kts | 305° |
| 2026-04-14 09:27 | -14.29060 | 48.78880 | 38250 ft | 449 kts | 305° |
| 2026-04-14 09:28 | -14.25276 | 48.73730 | 38260 ft | 452 kts | 305° |
| 2026-04-14 09:28 | -14.21504 | 48.68598 | 38232 ft | 451 kts | 305° |
| 2026-04-14 09:29 | -14.17725 | 48.63461 | 38220 ft | 451 kts | 305° |
| 2026-04-14 09:29 | -14.13926 | 48.58299 | 38212 ft | 450 kts | 305° |
| 2026-04-14 09:30 | -14.10153 | 48.53177 | 38151 ft | 454 kts | 305° |
| 2026-04-14 09:30 | -14.06343 | 48.48006 | 38174 ft | 450 kts | 305° |
| 2026-04-14 09:31 | -14.02571 | 48.42892 | 38153 ft | 451 kts | 305° |
| 2026-04-14 09:31 | -13.98764 | 48.37732 | 38097 ft | 453 kts | 305° |
| 2026-04-14 09:32 | -13.94946 | 48.32560 | 38041 ft | 451 kts | 305° |
| 2026-04-14 09:33 | -13.89277 | 48.24887 | 37994 ft | 452 kts | 305° |
| 2026-04-14 09:33 | -13.85454 | 48.19717 | 37980 ft | 451 kts | 305° |
| 2026-04-14 09:34 | -13.81675 | 48.14610 | 37968 ft | 451 kts | 305° |
| 2026-04-14 09:34 | -13.77854 | 48.09449 | 37973 ft | 452 kts | 306° |
| 2026-04-14 09:35 | -13.74097 | 48.04303 | 37966 ft | 449 kts | 301° |
| 2026-04-14 09:35 | -13.71534 | 47.98440 | 37970 ft | 451 kts | 283° |
| 2026-04-14 09:36 | -13.70741 | 47.92055 | 37967 ft | 449 kts | 274° |
| 2026-04-14 09:36 | -13.70340 | 47.85597 | 37960 ft | 451 kts | 274° |
| 2026-04-14 09:37 | -13.69935 | 47.79146 | 37954 ft | 449 kts | 274° |
| 2026-04-14 09:37 | -13.69528 | 47.72737 | 37950 ft | 450 kts | 274° |
| 2026-04-14 09:38 | -13.69115 | 47.66295 | 37949 ft | 449 kts | 274° |
| 2026-04-14 09:38 | -13.68703 | 47.59907 | 37950 ft | 449 kts | 274° |
| 2026-04-14 09:39 | -13.68287 | 47.53493 | 37947 ft | 449 kts | 274° |
| 2026-04-14 09:39 | -13.67873 | 47.47130 | 37947 ft | 449 kts | 274° |
| 2026-04-14 09:40 | -13.67452 | 47.40690 | 37947 ft | 449 kts | 274° |
| 2026-04-14 09:40 | -13.67030 | 47.34273 | 37948 ft | 449 kts | 274° |
| 2026-04-14 09:41 | -13.66606 | 47.27836 | 37953 ft | 450 kts | 274° |
| 2026-04-14 09:41 | -13.66182 | 47.21418 | 37953 ft | 452 kts | 274° |
| 2026-04-14 09:42 | -13.65755 | 47.14989 | 37229 ft | 447 kts | 274° |
| 2026-04-14 09:42 | -13.65541 | 47.11787 | 36124 ft | 451 kts | 274° |
| 2026-04-14 09:42 | -13.65324 | 47.08538 | 35121 ft | 453 kts | 275° |
| 2026-04-14 09:42 | -13.65109 | 47.05316 | 34262 ft | 453 kts | 275° |
| 2026-04-14 09:43 | -13.64892 | 47.02078 | 33387 ft | 453 kts | 275° |
| 2026-04-14 09:43 | -13.64675 | 46.98853 | 32518 ft | 453 kts | 275° |
| 2026-04-14 09:43 | -13.64456 | 46.95600 | 31650 ft | 455 kts | 275° |
| 2026-04-14 09:43 | -13.64239 | 46.92372 | 30767 ft | 457 kts | 275° |
| 2026-04-14 09:44 | -13.64017 | 46.89088 | 30212 ft | 459 kts | 275° |
| 2026-04-14 09:44 | -13.63792 | 46.85776 | 29713 ft | 468 kts | 275° |
| 2026-04-14 09:44 | -13.63566 | 46.82444 | 29154 ft | 467 kts | 274° |
| 2026-04-14 09:44 | -13.63341 | 46.79127 | 28582 ft | 463 kts | 274° |
| 2026-04-14 09:45 | -13.63116 | 46.75823 | 28024 ft | 458 kts | 274° |
| 2026-04-14 09:45 | -13.62895 | 46.72579 | 27470 ft | 454 kts | 274° |
| 2026-04-14 09:45 | -13.62673 | 46.69332 | 26708 ft | 449 kts | 274° |
| 2026-04-14 09:45 | -13.62456 | 46.66164 | 26257 ft | 447 kts | 274° |
| 2026-04-14 09:46 | -13.62237 | 46.62966 | 25946 ft | 449 kts | 274° |
| 2026-04-14 09:46 | -13.62016 | 46.59758 | 25650 ft | 451 kts | 274° |
| 2026-04-14 09:46 | -13.61795 | 46.56539 | 24824 ft | 454 kts | 274° |
| 2026-04-14 09:46 | -13.61575 | 46.53354 | 24126 ft | 451 kts | 274° |
| 2026-04-14 09:47 | -13.61354 | 46.50164 | 23629 ft | 443 kts | 274° |
| 2026-04-14 09:47 | -13.61137 | 46.47022 | 22871 ft | 439 kts | 274° |
| 2026-04-14 09:47 | -13.60920 | 46.43900 | 22193 ft | 431 kts | 274° |
| 2026-04-14 09:47 | -13.60711 | 46.40888 | 21594 ft | 422 kts | 274° |
| 2026-04-14 09:48 | -13.60504 | 46.37911 | 21028 ft | 414 kts | 274° |
| 2026-04-14 09:48 | -13.60298 | 46.34961 | 20464 ft | 405 kts | 274° |
| 2026-04-14 09:48 | -13.60099 | 46.32108 | 19957 ft | 398 kts | 274° |
| 2026-04-14 09:48 | -13.59901 | 46.29279 | 19438 ft | 393 kts | 274° |
| 2026-04-14 09:49 | -13.59706 | 46.26496 | 18895 ft | 398 kts | 274° |
| 2026-04-14 09:49 | -13.59278 | 46.23642 | 18307 ft | 406 kts | 284° |
| 2026-04-14 09:49 | -13.58347 | 46.20940 | 17733 ft | 405 kts | 295° |
| 2026-04-14 09:49 | -13.56930 | 46.18467 | 17451 ft | 393 kts | 306° |
| 2026-04-14 09:50 | -13.55233 | 46.16308 | 17150 ft | 384 kts | 310° |
| 2026-04-14 09:50 | -13.53513 | 46.14230 | 16688 ft | 394 kts | 311° |
| 2026-04-14 09:50 | -13.51712 | 46.12064 | 16109 ft | 397 kts | 311° |
| 2026-04-14 09:50 | -13.49935 | 46.09930 | 15522 ft | 396 kts | 311° |
| 2026-04-14 09:51 | -13.48147 | 46.07785 | 14936 ft | 395 kts | 311° |
| 2026-04-14 09:51 | -13.46354 | 46.05633 | 14350 ft | 393 kts | 311° |
| 2026-04-14 09:51 | -13.44587 | 46.03515 | 13761 ft | 392 kts | 311° |
| 2026-04-14 09:51 | -13.42804 | 46.01379 | 13173 ft | 390 kts | 311° |
| 2026-04-14 09:52 | -13.41067 | 45.99298 | 12603 ft | 388 kts | 311° |
| 2026-04-14 09:52 | -13.39303 | 45.97187 | 12018 ft | 386 kts | 311° |
| 2026-04-14 09:52 | -13.37569 | 45.95112 | 11444 ft | 384 kts | 311° |
| 2026-04-14 09:52 | -13.35840 | 45.93043 | 10890 ft | 382 kts | 311° |
| 2026-04-14 09:53 | -13.34130 | 45.90997 | 10721 ft | 368 kts | 311° |
| 2026-04-14 09:53 | -13.32493 | 45.89037 | 10583 ft | 354 kts | 311° |
| 2026-04-14 09:53 | -13.30921 | 45.87158 | 10420 ft | 343 kts | 311° |
| 2026-04-14 09:53 | -13.29378 | 45.85314 | 10262 ft | 332 kts | 311° |
| 2026-04-14 09:54 | -13.27905 | 45.83554 | 10114 ft | 323 kts | 311° |
| 2026-04-14 09:54 | -13.26453 | 45.81819 | 9820 ft | 319 kts | 311° |
| 2026-04-14 09:54 | -13.25025 | 45.80113 | 9748 ft | 307 kts | 311° |
| 2026-04-14 09:54 | -13.23659 | 45.78480 | 9731 ft | 293 kts | 312° |
| 2026-04-14 09:55 | -13.22359 | 45.76929 | 9575 ft | 287 kts | 312° |
| 2026-04-14 09:55 | -13.21053 | 45.75371 | 9275 ft | 286 kts | 312° |
| 2026-04-14 09:55 | -13.19765 | 45.73833 | 8933 ft | 285 kts | 311° |
| 2026-04-14 09:55 | -13.18457 | 45.72272 | 8601 ft | 284 kts | 311° |
| 2026-04-14 09:56 | -13.17175 | 45.70743 | 8255 ft | 282 kts | 311° |
| 2026-04-14 09:56 | -13.15911 | 45.69235 | 7900 ft | 281 kts | 311° |
| 2026-04-14 09:56 | -13.14632 | 45.67709 | 7549 ft | 280 kts | 311° |
| 2026-04-14 09:56 | -13.13375 | 45.66210 | 7201 ft | 278 kts | 311° |
| 2026-04-14 09:57 | -13.12113 | 45.64704 | 6851 ft | 277 kts | 311° |
| 2026-04-14 09:57 | -13.10859 | 45.63210 | 6507 ft | 276 kts | 311° |
| 2026-04-14 09:57 | -13.09607 | 45.61717 | 6167 ft | 274 kts | 311° |
| 2026-04-14 09:57 | -13.08368 | 45.60240 | 5836 ft | 273 kts | 311° |
| 2026-04-14 09:58 | -13.07132 | 45.58767 | 5506 ft | 271 kts | 311° |
| 2026-04-14 09:58 | -13.05910 | 45.57312 | 5209 ft | 269 kts | 311° |
| 2026-04-14 09:58 | -13.04689 | 45.55857 | 4964 ft | 268 kts | 311° |
| 2026-04-14 09:58 | -13.03476 | 45.54412 | 4721 ft | 265 kts | 311° |
| 2026-04-14 09:59 | -13.02274 | 45.52980 | 4485 ft | 262 kts | 311° |
| 2026-04-14 09:59 | -13.01102 | 45.51585 | 4267 ft | 258 kts | 311° |
| 2026-04-14 09:59 | -12.99951 | 45.50179 | 4052 ft | 255 kts | 305° |
| 2026-04-14 09:59 | -12.99153 | 45.48580 | 3861 ft | 248 kts | 290° |
| 2026-04-14 10:00 | -12.98675 | 45.46905 | 3644 ft | 241 kts | 283° |
| 2026-04-14 10:00 | -12.98326 | 45.45260 | 3436 ft | 234 kts | 281° |
| 2026-04-14 10:00 | -12.98015 | 45.43644 | 3227 ft | 228 kts | 281° |
| 2026-04-14 10:00 | -12.97714 | 45.42054 | 3018 ft | 223 kts | 280° |
| 2026-04-14 10:01 | -12.97302 | 45.40566 | 2824 ft | 217 kts | 300° |
| 2026-04-14 10:01 | -12.96322 | 45.39432 | 2651 ft | 206 kts | 319° |
| 2026-04-14 10:01 | -12.95247 | 45.38571 | 2471 ft | 188 kts | 323° |
| 2026-04-14 10:01 | -12.94224 | 45.37807 | 2300 ft | 177 kts | 324° |
| 2026-04-14 10:02 | -12.93251 | 45.37087 | 2128 ft | 171 kts | 324° |
| 2026-04-14 10:02 | -12.92292 | 45.36376 | 1936 ft | 166 kts | 324° |
| 2026-04-14 10:02 | -12.91380 | 45.35700 | 1763 ft | 157 kts | 325° |
| 2026-04-14 10:02 | -12.90507 | 45.35054 | 1620 ft | 152 kts | 324° |
| 2026-04-14 10:03 | -12.89636 | 45.34409 | 1600 ft | 153 kts | 325° |
| 2026-04-14 10:03 | -12.88774 | 45.33770 | 1596 ft | 154 kts | 325° |
| 2026-04-14 10:03 | -12.87892 | 45.33131 | 1561 ft | 153 kts | 326° |
| 2026-04-14 10:03 | -12.87015 | 45.32497 | 1378 ft | 154 kts | 325° |
| 2026-04-14 10:04 | -12.86141 | 45.31871 | 1175 ft | 154 kts | 326° |
| 2026-04-14 10:04 | -12.85255 | 45.31253 | 951 ft | 153 kts | 326° |
| 2026-04-14 10:04 | -12.84416 | 45.30568 | 731 ft | 153 kts | 319° |
| 2026-04-14 10:04 | -12.83596 | 45.29874 | 522 ft | 152 kts | 323° |
| 2026-04-14 10:05 | -12.82709 | 45.29271 | 307 ft | 152 kts | 328° |
| 2026-04-14 10:05 | -12.81806 | 45.28732 | 103 ft | 150 kts | 329° |
| 2026-04-14 10:05 | -12.81010 | 45.28260 | 35 ft | 90 kts | 329° |
| 2026-04-14 10:05 | -12.80723 | 45.28089 | 35 ft | 15 kts | 330° |
| 2026-04-14 10:06 | -12.80655 | 45.28074 | 34 ft | 8 kts | 52° |
| 2026-04-14 10:06 | -12.80628 | 45.28117 | 34 ft | 8 kts | 59° |
| 2026-04-14 10:06 | -12.80589 | 45.28148 | 34 ft | 7 kts | 349° |
| 2026-04-14 10:06 | -12.80537 | 45.28115 | 34 ft | 10 kts | 326° |
| 2026-04-14 10:07 | -12.80494 | 45.28085 | 34 ft | 3 kts | 326° |
| 2026-04-14 10:07 | -12.80454 | 45.28061 | 34 ft | 8 kts | 338° |
| 2026-04-14 10:07 | -12.80388 | 45.28079 | 34 ft | 11 kts | 50° |
| 2026-04-14 10:07 | -12.80329 | 45.28119 | 34 ft | 5 kts | 27° |
| 2026-04-14 10:08 | -12.80311 | 45.28144 | 34 ft | 3 kts | 76° |
| 2026-04-14 10:08 | -12.80307 | 45.28167 | 34 ft | 1 kts | 80° |